Details From LJLJ - Ljubljana
To LJPZ - Portoroz
Flight Number -
Tags Decoded
Created
Modified
Stats Distance 83 nm / 154 km
Max Altitude 0 ft / 0 m
Waypoints 6
Social Downloads 1
Likes 0
Share VATSIM

Download

Looking for another format? Having issues loading an existing format? Contact us
Advertisement - Login to hide

Notes

Decoded

Route

LJLJ REBRO NANIS IPINO BARPI LJPZ

ID Type Via Altitude Latitude Longitude Leg Dist Tot Dist Heading (true) Name
O LJLJ APT - 0 ft / 0 m 46.23249˚ 14.44039˚ - 0 nm - -
REBRO FIX - 0 ft / 0 m 46.11284˚ 14.37304˚ 7 nm 7 nm 201° / 201° -
NANIS FIX - 0 ft / 0 m 45.79099˚ 14.03297˚ 23 nm 31 nm 216° / 216° -
IPINO FIX - 0 ft / 0 m 45.70722˚ 13.28417˚ 31 nm 63 nm 261° / 261° -
BARPI FIX - 0 ft / 0 m 45.58581˚ 13.52286˚ 12 nm 75 nm 126° / 126° -
O LJPZ APT - 0 ft / 0 m 45.47718˚ 13.61198˚ 7 nm 83 nm 150° / 150° -

Altitude Profile

Advertisement - Login to hide

LJLJ

Details ICAO LJLJ (LJU)
Name LJUBLJANA
Region Slovenia
Timezone Europe/Ljubljana (UTC+1.0)
Stats Elevation 1,273 ft / 388 m (AMSL)
Location 46.223685° 14.457608°
Runways 1
Magnetic Variation 3.661° E

METAR

LJLJ 121430Z 19004KT 9999 SCT040 BKN060 OVC100 08/07 Q1010 NOSIG

Decode

TAF

TAF LJLJ 121400Z 1215/1315 10005KT 9999 SCT035 BKN060 TEMPO 1215/1303 -RA BKN035 OVC060 BECMG 1303/1305 3500 RASN BR BKN010 OVC020 BECMG 1305/1307 SN TEMPO 1304/1310 10012KT 0800 VV005 BECMG 1312/1315 7000 NSW

Decode

Departure Runways

ID Width Length Bearing (true) Bearing (mag) Surface Threshold Offset Overrun Length
13 148 ft / 45 m 10,811 ft / 3,295 m 126.47° 122.81° Asphalt 0 ft / 0 m 0 ft / 0 m
31 148 ft / 45 m 10,811 ft / 3,295 m 306.49° 302.83° Asphalt 0 ft / 0 m 0 ft / 0 m

LJPZ

Details ICAO LJPZ (POW)
Name PORTOROZ
Region Slovenia
Timezone Europe/Ljubljana (UTC+1.0)
Stats Elevation 7 ft / 2 m (AMSL)
Location 45.472445° 13.615681°
Runways 1
Magnetic Variation 3.443° E

METAR

LJPZ 121430Z 12003KT 9999 FEW035 BKN100 12/10 Q1011

Decode

TAF

Not found

Destination Runways

ID Width Length Bearing (true) Bearing (mag) Surface Threshold Offset Overrun Length
15 98 ft / 30 m 3,939 ft / 1,201 m 151.28° 147.84° Asphalt 0 ft / 0 m 0 ft / 0 m
33 98 ft / 30 m 3,939 ft / 1,201 m 331.29° 327.85° Asphalt 751 ft / 229 m 0 ft / 0 m

Popular Alternatives